createdAt,value
2022-12-23T00:00:18.740Z,85.54
2022-12-23T00:02:47.043Z,85.38
2022-12-23T00:05:17.147Z,85.31
2022-12-23T00:07:45.658Z,85.16
2022-12-23T00:10:13.947Z,85.17
2022-12-23T00:12:59.475Z,85.45
2022-12-23T00:15:27.457Z,85.23
2022-12-23T00:17:56.571Z,85.35
2022-12-23T00:20:26.147Z,85.21
2022-12-23T00:23:06.522Z,85.30
2022-12-23T00:25:44.972Z,85.26
2022-12-23T00:28:15.010Z,85.30
2022-12-23T00:30:47.047Z,85.31
2022-12-23T00:33:15.171Z,85.29
2022-12-23T00:35:44.674Z,85.21
2022-12-23T00:38:12.972Z,85.21
2022-12-23T00:40:58.434Z,85.07
2022-12-23T00:43:26.475Z,85.42
2022-12-23T00:45:54.450Z,85.51
2022-12-23T00:48:36.322Z,85.65
2022-12-23T00:51:05.994Z,85.78
2022-12-23T00:53:34.054Z,85.77
2022-12-23T00:56:01.985Z,85.83
2022-12-23T00:58:32.016Z,85.68
2022-12-23T01:01:16.576Z,85.61
2022-12-23T01:04:01.893Z,85.98
2022-12-23T01:06:31.502Z,85.79
2022-12-23T01:08:59.385Z,85.77
2022-12-23T01:11:27.557Z,85.67
2022-12-23T01:13:55.684Z,86.02
2022-12-23T01:16:23.614Z,85.70
2022-12-23T01:18:51.653Z,85.65
2022-12-23T01:21:19.645Z,85.99
2022-12-23T01:23:49.003Z,85.76
2022-12-23T01:26:17.024Z,85.65
2022-12-23T01:28:45.065Z,85.50
2022-12-23T01:31:13.147Z,85.64
2022-12-23T01:33:41.226Z,85.66
2022-12-23T01:36:09.955Z,85.30
2022-12-23T01:38:38.023Z,85.42
2022-12-23T01:41:07.489Z,85.60
2022-12-23T01:43:45.274Z,85.72
2022-12-23T01:46:13.309Z,85.58
2022-12-23T01:48:43.206Z,85.47
2022-12-23T01:51:13.902Z,85.36
2022-12-23T01:53:44.511Z,85.33
2022-12-23T01:56:16.086Z,85.34
2022-12-23T01:58:46.099Z,85.49
2022-12-23T02:01:31.788Z,85.44
2022-12-23T02:04:01.795Z,85.43
2022-12-23T02:06:48.752Z,85.36
2022-12-23T02:09:20.139Z,85.07
2022-12-23T02:12:02.296Z,85.18
2022-12-23T02:14:52.213Z,85.16
2022-12-23T02:17:22.879Z,85.84
2022-12-23T02:20:10.778Z,85.64
2022-12-23T02:22:51.346Z,85.58
2022-12-23T02:25:36.968Z,85.31
2022-12-23T02:28:19.286Z,85.30
2022-12-23T02:30:50.400Z,85.58
2022-12-23T02:33:27.278Z,85.67
2022-12-23T02:35:59.164Z,85.58
2022-12-23T02:38:31.625Z,85.54
2022-12-23T02:41:05.712Z,85.66
2022-12-23T02:43:40.636Z,85.70
2022-12-23T02:46:13.033Z,85.54
2022-12-23T02:48:44.223Z,85.48
2022-12-23T02:51:15.077Z,85.32
2022-12-23T02:53:44.527Z,85.16
2022-12-23T02:56:13.542Z,85.13
2022-12-23T02:58:45.723Z,85.22
2022-12-23T03:01:17.322Z,85.36
2022-12-23T03:03:46.227Z,85.17
2022-12-23T03:06:18.971Z,85.26
2022-12-23T03:08:47.133Z,85.17
2022-12-23T03:11:16.184Z,85.26
2022-12-23T03:13:50.555Z,85.33
2022-12-23T03:16:24.060Z,85.08
2022-12-23T03:18:58.558Z,85.33
2022-12-23T03:21:31.763Z,85.51
2022-12-23T03:24:07.251Z,85.31
2022-12-23T03:26:37.821Z,85.46
2022-12-23T03:29:10.630Z,85.41
2022-12-23T03:31:40.949Z,85.43
2022-12-23T03:34:11.827Z,85.48
2022-12-23T03:36:41.512Z,85.57
2022-12-23T03:39:12.063Z,85.43
2022-12-23T03:41:42.654Z,85.19
2022-12-23T03:44:13.503Z,85.54
2022-12-23T03:46:47.074Z,85.52
2022-12-23T03:49:17.439Z,85.45
2022-12-23T03:51:50.381Z,85.54
2022-12-23T03:54:20.601Z,85.56
2022-12-23T03:56:52.885Z,85.36
2022-12-23T03:59:22.611Z,85.53
2022-12-23T04:01:56.572Z,85.64
2022-12-23T04:04:27.844Z,85.92
2022-12-23T04:06:58.495Z,85.63
2022-12-23T04:09:28.207Z,85.46
2022-12-23T04:11:56.780Z,85.58
2022-12-23T04:14:26.283Z,85.73
2022-12-23T04:16:57.429Z,85.56
2022-12-23T04:19:25.888Z,85.76
2022-12-23T04:21:54.657Z,85.72
2022-12-23T04:24:22.851Z,85.62
2022-12-23T04:26:50.789Z,85.62
2022-12-23T04:29:18.835Z,85.63
2022-12-23T04:31:47.100Z,85.66
2022-12-23T04:34:16.616Z,85.59
2022-12-23T04:36:44.682Z,85.66
2022-12-23T04:39:12.888Z,85.40
2022-12-23T04:41:40.903Z,85.45
2022-12-23T04:44:09.265Z,85.61
2022-12-23T04:46:37.419Z,85.40
2022-12-23T04:49:05.733Z,85.34
2022-12-23T04:51:35.366Z,85.25
2022-12-23T04:54:03.369Z,85.31
2022-12-23T04:56:31.456Z,85.49
2022-12-23T04:59:02.002Z,85.60
2022-12-23T05:01:30.255Z,85.65
2022-12-23T05:03:58.493Z,85.56
2022-12-23T05:06:26.458Z,85.51
2022-12-23T05:08:55.882Z,85.57
2022-12-23T05:11:23.801Z,85.60
2022-12-23T05:13:51.788Z,85.42
2022-12-23T05:16:20.077Z,85.34
2022-12-23T05:18:48.245Z,85.35
2022-12-23T05:21:16.746Z,85.36
2022-12-23T05:23:45.156Z,85.50
2022-12-23T05:26:14.724Z,85.40
2022-12-23T05:28:43.195Z,85.58
2022-12-23T05:31:11.902Z,85.39
2022-12-23T05:33:40.414Z,85.44
2022-12-23T05:36:08.924Z,85.28
2022-12-23T05:38:37.044Z,85.55
2022-12-23T05:41:05.543Z,85.56
2022-12-23T05:43:35.136Z,85.52
2022-12-23T05:46:03.283Z,85.89
2022-12-23T05:48:31.387Z,85.58
2022-12-23T05:50:59.540Z,85.62
2022-12-23T05:53:28.014Z,85.54
2022-12-23T05:55:56.058Z,85.69
2022-12-23T05:58:24.170Z,85.92
2022-12-23T06:00:54.138Z,85.76
2022-12-23T06:03:22.555Z,85.65
2022-12-23T06:05:51.456Z,85.64
2022-12-23T06:08:19.627Z,85.66
2022-12-23T06:10:48.143Z,85.48
2022-12-23T06:13:16.103Z,85.40
2022-12-23T06:15:44.133Z,85.60
2022-12-23T06:18:13.523Z,85.41
2022-12-23T06:20:41.475Z,85.37
2022-12-23T06:23:09.516Z,85.35
2022-12-23T06:25:37.745Z,85.42
2022-12-23T06:28:07.747Z,85.48
2022-12-23T06:30:36.061Z,85.50
2022-12-23T06:33:04.144Z,85.55
2022-12-23T06:35:33.631Z,85.56
2022-12-23T06:38:01.721Z,85.46
2022-12-23T06:40:30.433Z,85.70
2022-12-23T06:42:58.384Z,85.69
2022-12-23T06:45:26.623Z,85.58
2022-12-23T06:47:54.949Z,85.29
2022-12-23T06:50:23.082Z,85.46
2022-12-23T06:52:52.652Z,85.46
2022-12-23T06:55:20.647Z,85.65
2022-12-23T06:57:48.738Z,85.48
2022-12-23T07:00:17.547Z,85.62
2022-12-23T07:02:45.550Z,85.53
2022-12-23T07:05:13.787Z,85.51
2022-12-23T07:07:41.915Z,85.43
2022-12-23T07:10:11.968Z,85.55
2022-12-23T07:12:46.007Z,85.40
2022-12-23T07:15:17.085Z,85.07
2022-12-23T07:17:45.153Z,85.35
2022-12-23T07:20:14.881Z,85.39
2022-12-23T07:22:42.879Z,85.18
2022-12-23T07:25:12.421Z,85.20
2022-12-23T07:27:42.005Z,85.15
2022-12-23T07:30:10.552Z,85.25
2022-12-23T07:32:38.739Z,85.44
2022-12-23T07:35:07.137Z,85.06
2022-12-23T07:37:35.181Z,84.95
2022-12-23T07:40:08.291Z,84.92
2022-12-23T07:42:47.010Z,85.16
2022-12-23T07:45:15.640Z,85.04
2022-12-23T07:47:43.849Z,85.05
2022-12-23T07:50:12.185Z,85.06
2022-12-23T07:52:40.218Z,84.99
2022-12-23T07:55:08.765Z,85.00
2022-12-23T07:57:38.724Z,84.57
2022-12-23T08:00:08.476Z,84.91
2022-12-23T08:02:37.112Z,85.05
2022-12-23T08:05:05.472Z,85.03
2022-12-23T08:07:33.848Z,84.96
2022-12-23T08:10:01.903Z,84.86
2022-12-23T08:12:30.581Z,84.92
2022-12-23T08:15:00.337Z,84.85
2022-12-23T08:17:28.859Z,84.59
2022-12-23T08:19:57.098Z,84.66
2022-12-23T08:22:25.645Z,84.71
2022-12-23T08:24:53.756Z,84.67
2022-12-23T08:27:21.784Z,84.77
2022-12-23T08:29:49.812Z,84.88
2022-12-23T08:32:19.282Z,84.86
2022-12-23T08:34:47.302Z,84.89
2022-12-23T08:37:15.288Z,84.64
2022-12-23T08:39:43.962Z,84.72
2022-12-23T08:42:11.954Z,84.67
2022-12-23T08:44:40.074Z,84.31
2022-12-23T08:47:08.053Z,84.17
2022-12-23T08:49:37.801Z,84.52
2022-12-23T08:52:06.022Z,84.83
2022-12-23T08:54:34.135Z,84.66
2022-12-23T08:57:02.073Z,84.83
2022-12-23T08:59:30.244Z,84.55
2022-12-23T09:01:59.962Z,84.75
2022-12-23T09:04:28.215Z,84.44
2022-12-23T09:06:57.642Z,84.17
2022-12-23T09:09:25.626Z,84.31
2022-12-23T09:11:53.789Z,84.28
2022-12-23T09:14:21.837Z,84.30
2022-12-23T09:16:52.102Z,84.38
2022-12-23T09:19:20.682Z,84.29
2022-12-23T09:21:48.628Z,83.59
2022-12-23T09:24:18.020Z,83.90
2022-12-23T09:26:46.129Z,84.15
2022-12-23T09:29:14.176Z,84.20
2022-12-23T09:31:42.314Z,84.50
2022-12-23T09:34:11.739Z,84.30
2022-12-23T09:36:40.039Z,84.12
2022-12-23T09:39:07.995Z,84.36
2022-12-23T09:41:48.900Z,84.20
2022-12-23T09:44:26.289Z,83.87
2022-12-23T09:46:56.320Z,84.02
2022-12-23T09:49:25.430Z,84.14
2022-12-23T09:51:56.031Z,83.90
2022-12-23T09:54:29.180Z,83.79
2022-12-23T09:57:00.275Z,83.98
2022-12-23T09:59:35.874Z,83.79
2022-12-23T10:02:11.197Z,83.70
2022-12-23T10:04:43.544Z,83.16
2022-12-23T10:07:33.016Z,83.32
2022-12-23T10:10:04.929Z,83.63
2022-12-23T10:12:40.543Z,83.55
2022-12-23T10:15:17.963Z,83.50
2022-12-23T10:17:47.304Z,83.56
2022-12-23T10:20:19.456Z,83.88
2022-12-23T10:22:47.902Z,84.13
2022-12-23T10:25:17.341Z,84.09
2022-12-23T10:27:46.936Z,83.89
2022-12-23T10:30:42.408Z,84.12
2022-12-23T10:33:05.567Z,84.13
2022-12-23T10:35:51.323Z,83.87
2022-12-23T10:38:29.295Z,83.88
2022-12-23T10:41:08.790Z,84.03
2022-12-23T10:43:42.775Z,83.97
2022-12-23T10:46:18.894Z,83.82
2022-12-23T10:48:52.994Z,83.91
2022-12-23T10:51:22.672Z,84.22
2022-12-23T10:53:53.404Z,83.84
2022-12-23T10:56:22.182Z,84.14
2022-12-23T10:58:52.661Z,83.73
2022-12-23T11:01:26.697Z,83.96
2022-12-23T11:04:03.123Z,84.12
2022-12-23T11:06:37.123Z,84.14
2022-12-23T11:09:06.678Z,84.36
2022-12-23T11:11:54.193Z,84.34
2022-12-23T11:14:32.369Z,84.39
2022-12-23T11:17:00.496Z,84.78
2022-12-23T11:19:28.486Z,84.61
2022-12-23T11:21:57.839Z,84.55
2022-12-23T11:24:26.707Z,84.60
2022-12-23T11:27:01.362Z,84.75
2022-12-23T11:29:30.738Z,84.80
2022-12-23T11:32:00.513Z,84.84
2022-12-23T11:34:32.109Z,84.54
2022-12-23T11:37:06.998Z,84.88
2022-12-23T11:39:36.734Z,84.65
2022-12-23T11:42:07.258Z,84.79
2022-12-23T11:44:37.363Z,84.69
2022-12-23T11:47:20.574Z,84.38
2022-12-23T11:49:49.724Z,84.58
2022-12-23T11:52:19.458Z,84.64
2022-12-23T11:54:54.405Z,84.65
2022-12-23T11:57:34.615Z,84.70
2022-12-23T12:00:04.026Z,84.59
2022-12-23T12:02:36.886Z,84.80
2022-12-23T12:05:07.299Z,84.87
2022-12-23T12:07:35.515Z,84.68
2022-12-23T12:10:03.831Z,84.77
2022-12-23T12:12:31.957Z,84.90
2022-12-23T12:15:01.102Z,84.99
2022-12-23T12:17:32.620Z,84.79
2022-12-23T12:20:05.917Z,84.88
2022-12-23T12:22:37.604Z,85.02
2022-12-23T12:25:11.783Z,85.23
2022-12-23T12:27:42.929Z,85.00
2022-12-23T12:30:15.537Z,85.02
2022-12-23T12:32:47.986Z,85.13
2022-12-23T12:35:19.639Z,85.27
2022-12-23T12:37:50.117Z,85.04
2022-12-23T12:40:25.454Z,85.23
2022-12-23T12:42:57.985Z,85.30
2022-12-23T12:48:33.811Z,85.20
2022-12-23T12:51:05.849Z,85.43
2022-12-23T12:53:34.930Z,85.18
2022-12-23T12:56:08.656Z,85.26
2022-12-23T12:58:36.744Z,85.21
2022-12-23T13:01:15.990Z,85.18
2022-12-23T13:04:05.688Z,85.48
2022-12-23T13:06:40.027Z,85.52
2022-12-23T13:09:14.517Z,85.68
2022-12-23T13:11:46.318Z,85.36
2022-12-23T13:14:21.905Z,85.50
2022-12-23T13:16:55.038Z,85.51
2022-12-23T13:19:27.183Z,85.34
2022-12-23T13:22:01.729Z,85.57
2022-12-23T13:24:33.585Z,85.59
2022-12-23T13:27:07.267Z,85.54
2022-12-23T13:29:58.221Z,85.47
2022-12-23T13:32:41.600Z,85.23
2022-12-23T13:35:18.909Z,85.33
2022-12-23T13:37:52.812Z,85.66
2022-12-23T13:40:27.697Z,85.52
2022-12-23T13:42:57.112Z,85.79
2022-12-23T13:45:29.044Z,85.71
2022-12-23T13:48:05.074Z,85.57
2022-12-23T13:50:37.336Z,85.36
2022-12-23T13:53:15.018Z,85.32
2022-12-23T13:55:49.548Z,85.59
2022-12-23T13:58:19.465Z,85.50
2022-12-23T14:00:50.666Z,85.55
2022-12-23T14:03:20.468Z,85.45
2022-12-23T14:05:50.848Z,85.42
2022-12-23T14:08:25.313Z,85.70
2022-12-23T14:10:55.039Z,85.56
2022-12-23T14:13:25.213Z,85.47
2022-12-23T14:16:04.059Z,85.56
2022-12-23T14:18:37.699Z,85.56
2022-12-23T14:21:11.006Z,85.78
2022-12-23T14:23:50.258Z,85.67
2022-12-23T14:26:24.372Z,85.60
2022-12-23T14:29:01.543Z,85.62
2022-12-23T14:31:34.934Z,85.50
2022-12-23T14:34:07.636Z,85.86
2022-12-23T14:36:35.689Z,85.89
2022-12-23T14:39:22.747Z,85.46
2022-12-23T14:41:53.091Z,85.56
2022-12-23T14:44:22.152Z,85.56
2022-12-23T14:46:54.870Z,85.54
2022-12-23T14:49:40.831Z,85.36
2022-12-23T14:52:27.828Z,85.55
2022-12-23T14:55:28.646Z,85.66
2022-12-23T14:57:45.799Z,85.60
2022-12-23T15:00:14.483Z,85.65
2022-12-23T15:02:42.996Z,85.63
2022-12-23T15:05:11.406Z,85.77
2022-12-23T15:07:40.076Z,85.96
2022-12-23T15:10:10.060Z,85.81
2022-12-23T15:12:40.109Z,85.67
2022-12-23T15:15:15.327Z,85.71
2022-12-23T15:17:43.787Z,85.72
2022-12-23T15:20:17.276Z,85.54
2022-12-23T15:22:46.507Z,85.65
2022-12-23T15:25:21.436Z,85.71
2022-12-23T15:27:50.129Z,85.46
2022-12-23T15:30:20.151Z,85.72
2022-12-23T15:32:49.371Z,85.78
2022-12-23T15:35:20.314Z,85.71
2022-12-23T15:37:49.751Z,85.78
2022-12-23T15:40:25.559Z,85.60
2022-12-23T15:42:53.766Z,85.79
2022-12-23T15:45:33.221Z,85.82
2022-12-23T15:48:01.712Z,85.75
2022-12-23T15:50:30.345Z,85.63
2022-12-23T15:53:03.698Z,85.70
2022-12-23T15:55:32.600Z,85.82
2022-12-23T15:58:01.461Z,85.61
2022-12-23T16:00:32.646Z,86.04
2022-12-23T16:03:04.666Z,85.95
2022-12-23T16:05:37.274Z,85.87
2022-12-23T16:08:12.425Z,85.64
2022-12-23T16:10:40.962Z,85.86
2022-12-23T16:13:17.554Z,85.88
2022-12-23T16:15:46.141Z,86.08
2022-12-23T16:18:21.274Z,86.10
2022-12-23T16:20:50.852Z,86.09
2022-12-23T16:23:19.304Z,86.12
2022-12-23T16:25:50.334Z,86.05
2022-12-23T16:28:23.176Z,85.85
2022-12-23T16:30:53.428Z,86.08
2022-12-23T16:33:29.341Z,85.97
2022-12-23T16:35:58.082Z,85.95
2022-12-23T16:38:27.406Z,86.13
2022-12-23T16:40:56.296Z,86.26
2022-12-23T16:43:25.411Z,86.23
2022-12-23T16:45:54.326Z,85.86
2022-12-23T16:48:27.051Z,85.83
2022-12-23T16:50:56.654Z,86.16
2022-12-23T16:53:24.755Z,86.04
2022-12-23T16:55:59.997Z,85.67
2022-12-23T16:58:28.922Z,85.70
2022-12-23T17:00:57.109Z,85.98
2022-12-23T17:03:25.174Z,86.07
2022-12-23T17:05:53.225Z,86.15
2022-12-23T17:08:22.654Z,86.04
2022-12-23T17:10:50.797Z,86.37
2022-12-23T17:13:19.710Z,86.15
2022-12-23T17:15:47.814Z,86.41
2022-12-23T17:18:20.795Z,86.38
2022-12-23T17:20:50.276Z,86.26
2022-12-23T17:23:25.564Z,86.26
2022-12-23T17:25:53.761Z,86.11
2022-12-23T17:28:21.984Z,86.45
2022-12-23T17:30:52.170Z,86.61
2022-12-23T17:33:20.747Z,86.64
2022-12-23T17:35:49.144Z,86.65
2022-12-23T17:38:18.000Z,86.62
2022-12-23T17:40:48.150Z,86.65
2022-12-23T17:43:17.142Z,86.74
2022-12-23T17:45:45.614Z,86.53
2022-12-23T17:48:20.584Z,86.25
2022-12-23T17:50:50.685Z,86.32
2022-12-23T17:53:19.411Z,86.33
2022-12-23T17:55:48.856Z,86.81
2022-12-23T17:58:17.082Z,86.76
2022-12-23T18:00:45.312Z,86.60
2022-12-23T18:03:21.359Z,86.47
2022-12-23T18:05:49.417Z,86.45
2022-12-23T18:08:18.026Z,86.54
2022-12-23T18:10:46.652Z,86.64
2022-12-23T18:13:18.478Z,86.74
2022-12-23T18:15:46.960Z,86.57
2022-12-23T18:18:22.020Z,86.51
2022-12-23T18:20:56.247Z,86.36
2022-12-23T18:23:26.045Z,86.35
2022-12-23T18:25:54.107Z,86.19
2022-12-23T18:28:23.631Z,86.21
2022-12-23T18:30:52.012Z,86.25
2022-12-23T18:33:20.012Z,86.08
2022-12-23T18:35:48.669Z,86.14
2022-12-23T18:38:17.284Z,86.26
2022-12-23T18:40:45.780Z,86.38
2022-12-23T18:43:18.571Z,86.29
2022-12-23T18:45:52.692Z,86.46
2022-12-23T18:48:21.916Z,86.36
2022-12-23T18:50:50.047Z,86.42
2022-12-23T18:53:23.726Z,86.64
2022-12-23T18:55:52.931Z,86.39
2022-12-23T18:58:21.244Z,86.30
2022-12-23T19:00:52.763Z,86.12
2022-12-23T19:03:23.183Z,86.20
2022-12-23T19:05:51.224Z,86.29
2022-12-23T19:08:25.841Z,86.16
2022-12-23T19:10:55.048Z,86.44
2022-12-23T19:16:19.751Z,86.13
2022-12-23T19:18:48.382Z,86.18
2022-12-23T19:21:16.485Z,86.08
2022-12-23T19:23:44.673Z,86.05
2022-12-23T19:26:13.943Z,86.19
2022-12-23T19:28:42.889Z,86.35
2022-12-23T19:31:11.841Z,86.21
2022-12-23T19:33:42.663Z,86.05
2022-12-23T19:36:11.430Z,85.97
2022-12-23T19:38:39.634Z,86.06
2022-12-23T19:41:08.609Z,85.98
2022-12-23T19:43:36.956Z,86.10
2022-12-23T19:46:06.062Z,85.86
2022-12-23T19:48:34.697Z,86.18
2022-12-23T19:51:05.352Z,86.21
2022-12-23T19:53:33.347Z,86.35
2022-12-23T19:56:02.452Z,86.18
2022-12-23T19:58:33.322Z,85.79
2022-12-23T20:01:08.662Z,85.74
2022-12-23T20:03:37.098Z,85.91
2022-12-23T20:06:07.996Z,85.74
2022-12-23T20:08:36.126Z,86.01
2022-12-23T20:11:05.368Z,86.38
2022-12-23T20:13:33.489Z,86.02
2022-12-23T20:16:01.630Z,85.94
2022-12-23T20:18:31.793Z,86.19
2022-12-23T20:21:01.062Z,85.80
2022-12-23T20:23:30.714Z,85.83
2022-12-23T20:25:58.767Z,85.91
2022-12-23T20:28:26.805Z,85.83
2022-12-23T20:31:09.013Z,85.67
2022-12-23T20:33:37.531Z,85.62
2022-12-23T20:36:07.429Z,85.90
2022-12-23T20:38:37.153Z,85.91
2022-12-23T20:41:05.548Z,85.70
2022-12-23T20:43:34.888Z,85.53
2022-12-23T20:46:03.207Z,85.42
2022-12-23T20:48:34.045Z,85.72
2022-12-23T20:51:06.499Z,85.34
2022-12-23T20:53:34.678Z,85.47
2022-12-23T20:56:04.496Z,85.60
2022-12-23T20:58:49.967Z,85.33
2022-12-23T21:01:18.062Z,85.29
2022-12-23T21:03:46.147Z,85.62
2022-12-23T21:06:14.189Z,85.51
2022-12-23T21:08:43.437Z,85.44
2022-12-23T21:11:12.872Z,85.60
2022-12-23T21:13:40.973Z,85.73
2022-12-23T21:16:10.320Z,85.65
2022-12-23T21:18:40.816Z,85.93
2022-12-23T21:21:08.830Z,85.89
2022-12-23T21:23:40.315Z,85.71
2022-12-23T21:26:14.087Z,85.52
2022-12-23T21:28:42.661Z,85.64
2022-12-23T21:31:11.237Z,85.66
2022-12-23T21:33:40.420Z,86.03
2022-12-23T21:36:09.281Z,85.77
2022-12-23T21:38:38.458Z,85.69
2022-12-23T21:41:08.477Z,85.86
2022-12-23T21:43:38.137Z,85.21
2022-12-23T21:46:08.131Z,85.49
2022-12-23T21:48:37.094Z,85.34
2022-12-23T21:51:07.764Z,85.37
2022-12-23T21:53:35.966Z,85.71
2022-12-23T21:56:04.913Z,85.29
2022-12-23T21:58:33.281Z,85.52
2022-12-23T22:01:07.001Z,85.70
2022-12-23T22:03:35.322Z,85.36
2022-12-23T22:06:10.215Z,85.56
2022-12-23T22:08:39.054Z,85.53
2022-12-23T22:11:07.597Z,85.40
2022-12-23T22:13:35.581Z,85.48
2022-12-23T22:16:05.560Z,85.25
2022-12-23T22:18:33.726Z,85.42
2022-12-23T22:21:05.391Z,85.52
2022-12-23T22:23:33.559Z,85.53
2022-12-23T22:26:01.603Z,85.36
2022-12-23T22:28:31.652Z,85.63
2022-12-23T22:31:02.334Z,85.45
2022-12-23T22:33:32.507Z,85.17
2022-12-23T22:36:00.856Z,85.41
2022-12-23T22:38:29.063Z,85.62
2022-12-23T22:40:57.156Z,85.54
2022-12-23T22:43:25.092Z,85.63
2022-12-23T22:45:56.696Z,85.59
2022-12-23T22:48:24.928Z,85.41
2022-12-23T22:51:02.307Z,85.60
2022-12-23T22:53:30.375Z,85.40
2022-12-23T22:55:58.987Z,85.91
2022-12-23T22:58:27.281Z,85.65
2022-12-23T23:00:58.309Z,85.67
2022-12-23T23:03:26.738Z,85.40
2022-12-23T23:06:00.382Z,85.53
2022-12-23T23:08:28.787Z,85.60
2022-12-23T23:10:57.629Z,85.81
2022-12-23T23:13:25.940Z,85.86
2022-12-23T23:15:54.714Z,85.37
2022-12-23T23:18:22.734Z,85.37
2022-12-23T23:20:51.026Z,85.30
2022-12-23T23:23:20.435Z,85.43
2022-12-23T23:25:48.710Z,85.35
2022-12-23T23:28:16.974Z,85.36
2022-12-23T23:30:45.028Z,85.22
2022-12-23T23:33:13.170Z,85.28
2022-12-23T23:35:41.538Z,85.25
2022-12-23T23:38:09.718Z,85.19
2022-12-23T23:40:39.196Z,85.16
2022-12-23T23:43:07.090Z,85.48
2022-12-23T23:45:35.165Z,85.52
2022-12-23T23:48:03.093Z,85.48
2022-12-23T23:50:31.123Z,85.58
2022-12-23T23:52:59.116Z,85.19
2022-12-23T23:55:27.354Z,85.15
2022-12-23T23:57:56.721Z,85.25
